Time;durP1;ratioP1;P1;durP2;ratioP2;P2;SDS_P1;SDS_P2;PMS_P1;PMS_P2;Temp;Humidity;BMP_temperature;BMP_pressure;BME280_temperature;BME280_humidity;BME280_pressure;Samples;Min_cycle;Max_cycle;Signal;HPM_P1;HPM_P2
2020/12/06 00:00:12;;;;;;;28.25;13.90;;;;;;;3.93;100.00;98558.97;4193842;84;28574;-76
2020/12/06 00:06:21;;;;;;;33.67;15.47;;;;;;;3.57;100.00;98560.06;4205345;83;37599;-78
2020/12/06 00:12:22;;;;;;;45.63;16.85;;;;;;;3.66;100.00;98555.39;4180704;83;28551;-74
2020/12/06 00:18:25;;;;;;;25.10;12.40;;;;;;;3.63;100.00;98550.78;4205637;83;28620;-74
2020/12/06 00:24:27;;;;;;;30.43;16.10;;;;;;;3.42;100.00;98559.66;4176297;84;28596;-74
2020/12/06 00:30:29;;;;;;;32.95;16.10;;;;;;;3.24;100.00;98572.66;4167676;84;28549;-74
2020/12/06 00:36:31;;;;;;;27.70;13.53;;;;;;;3.22;100.00;98572.84;4167844;84;28613;-74
2020/12/06 00:42:35;;;;;;;26.90;13.95;;;;;;;2.79;100.00;98562.64;4167421;84;28628;-73
2020/12/06 00:48:38;;;;;;;32.10;15.35;;;;;;;2.59;100.00;98566.44;4186560;84;28595;-74
2020/12/06 00:54:40;;;;;;;27.67;13.22;;;;;;;2.89;100.00;98566.80;4189297;84;28617;-75
2020/12/06 01:00:43;;;;;;;34.45;16.05;;;;;;;2.50;100.00;98568.94;4183213;83;28612;-74
2020/12/06 01:06:45;;;;;;;34.27;15.58;;;;;;;2.84;100.00;98583.31;4180642;84;28605;-74
2020/12/06 01:12:47;;;;;;;29.40;15.08;;;;;;;2.90;100.00;98572.42;4215005;84;28549;-74
2020/12/06 01:18:49;;;;;;;27.32;13.50;;;;;;;2.42;100.00;98577.83;4207455;84;28545;-74
2020/12/06 01:24:51;;;;;;;27.80;14.00;;;;;;;2.40;100.00;98579.05;4210127;84;28554;-74
2020/12/06 01:30:53;;;;;;;26.33;13.00;;;;;;;2.30;100.00;98583.32;4206700;84;28660;-74
2020/12/06 01:36:55;;;;;;;29.12;14.25;;;;;;;2.21;100.00;98579.97;4194882;84;28612;-74
2020/12/06 01:42:57;;;;;;;25.77;13.32;;;;;;;2.13;100.00;98578.23;4239252;82;28583;-74
2020/12/06 01:49:00;;;;;;;31.00;14.78;;;;;;;1.85;100.00;98584.76;4264177;82;28619;-75
2020/12/06 01:55:04;;;;;;;27.48;14.90;;;;;;;1.71;100.00;98586.42;4256842;82;28577;-74
2020/12/06 02:01:09;;;;;;;28.42;13.88;;;;;;;1.66;100.00;98590.95;4273148;82;28588;-75
2020/12/06 02:07:11;;;;;;;25.85;12.82;;;;;;;1.90;100.00;98579.22;4276757;82;28579;-75
2020/12/06 02:13:13;;;;;;;27.90;14.07;;;;;;;1.72;100.00;98585.41;4263930;82;28556;-75
2020/12/06 02:19:16;;;;;;;27.65;13.90;;;;;;;1.55;100.00;98594.06;4243406;82;28587;-74
2020/12/06 02:25:18;;;;;;;27.62;13.83;;;;;;;1.52;100.00;98589.45;4264260;82;43417;-74
2020/12/06 02:31:20;;;;;;;27.48;14.73;;;;;;;1.19;100.00;98595.11;4242794;82;43425;-74
2020/12/06 02:37:23;;;;;;;28.42;13.65;;;;;;;1.19;100.00;98583.20;4254375;82;28590;-74
2020/12/06 02:43:25;;;;;;;28.40;13.58;;;;;;;1.18;100.00;98598.77;4236924;82;28602;-74
2020/12/06 02:49:27;;;;;;;25.80;13.28;;;;;;;1.35;100.00;98589.31;4178521;84;28710;-74
2020/12/06 02:55:30;;;;;;;26.68;13.62;;;;;;;1.21;100.00;98596.27;4172922;84;43256;-74
2020/12/06 03:01:32;;;;;;;27.02;13.00;;;;;;;1.07;100.00;98601.34;4182290;84;28575;-74
2020/12/06 03:07:34;;;;;;;28.25;13.20;;;;;;;0.87;100.00;98600.20;4181699;84;28561;-74
2020/12/06 03:13:36;;;;;;;28.40;13.83;;;;;;;0.87;100.00;98597.56;4175849;84;28580;-74
2020/12/06 03:19:38;;;;;;;26.75;13.50;;;;;;;0.97;100.00;98598.97;4187814;84;28584;-75
2020/12/06 03:25:40;;;;;;;28.15;12.95;;;;;;;1.13;100.00;98599.80;4182614;84;28572;-74
2020/12/06 03:31:42;;;;;;;26.80;13.08;;;;;;;1.23;100.00;98608.82;4186360;84;28624;-74
2020/12/06 03:37:44;;;;;;;25.50;12.65;;;;;;;0.75;100.00;98603.28;4199381;84;28761;-74
2020/12/06 03:43:46;;;;;;;31.17;13.95;;;;;;;0.49;100.00;98606.30;4278454;82;44099;-74
2020/12/06 03:49:49;;;;;;;27.42;13.72;;;;;;;0.47;100.00;98599.88;4279933;82;28570;-74
2020/12/06 03:55:51;;;;;;;29.67;13.30;;;;;;;0.58;100.00;98597.81;4276993;82;28612;-75
2020/12/06 04:01:53;;;;;;;23.70;12.20;;;;;;;0.73;100.00;98596.03;4277102;82;43752;-74
2020/12/06 04:07:56;;;;;;;27.82;13.98;;;;;;;0.59;100.00;98596.81;4263355;82;28622;-75
2020/12/06 04:13:58;;;;;;;25.25;13.22;;;;;;;0.51;100.00;98602.97;4284607;82;43349;-75
2020/12/06 04:20:00;;;;;;;23.83;12.18;;;;;;;0.32;100.00;98601.14;4272904;82;28608;-74
2020/12/06 04:26:02;;;;;;;25.90;13.03;;;;;;;0.28;100.00;98598.50;4262764;82;28602;-74
2020/12/06 04:32:04;;;;;;;29.42;15.32;;;;;;;0.29;100.00;98613.36;4268720;82;44117;-75
2020/12/06 04:38:06;;;;;;;29.42;14.20;;;;;;;0.71;100.00;98614.40;4266025;82;28659;-74
2020/12/06 04:44:08;;;;;;;31.15;14.68;;;;;;;0.47;100.00;98610.95;4196784;82;28684;-74
2020/12/06 04:50:13;;;;;;;28.87;13.78;;;;;;;0.38;100.00;98611.51;4198419;84;43454;-74
2020/12/06 04:56:18;;;;;;;26.00;12.45;;;;;;;0.31;100.00;98611.36;4193297;83;28631;-74
2020/12/06 05:02:23;;;;;;;25.95;13.35;;;;;;;0.18;100.00;98606.67;4159006;84;28624;-75
2020/12/06 05:08:25;;;;;;;24.57;12.88;;;;;;;0.18;100.00;98609.31;4180270;84;28588;-75
2020/12/06 05:14:27;;;;;;;27.07;13.22;;;;;;;0.06;100.00;98616.80;4191529;83;43217;-75
2020/12/06 05:20:30;;;;;;;28.85;14.45;;;;;;;-0.12;100.00;98607.81;4187545;84;43410;-75
2020/12/06 05:26:34;;;;;;;32.73;14.50;;;;;;;-0.13;100.00;98607.49;4185879;84;28608;-75
2020/12/06 05:32:36;;;;;;;31.20;15.45;;;;;;;-0.09;100.00;98596.89;4198115;84;29058;-74
2020/12/06 05:38:39;;;;;;;29.63;15.68;;;;;;;0.05;100.00;98608.55;4230442;82;44103;-75
2020/12/06 05:44:40;;;;;;;29.05;14.78;;;;;;;-0.08;100.00;98626.28;4198611;84;43449;-75
2020/12/06 05:50:45;;;;;;;30.57;13.65;;;;;;;-0.23;100.00;98620.89;4256840;83;28574;-75
2020/12/06 06:03:05;;;;;;;28.67;14.07;;;;;;;-0.24;100.00;98624.53;4583617;76;68634;-73
2020/12/06 06:09:09;;;;;;;33.23;14.75;;;;;;;-0.11;100.00;98624.00;4514270;78;44129;-74
2020/12/06 06:15:11;;;;;;;33.90;16.27;;;;;;;-0.32;100.00;98632.48;4466845;79;44073;-73
2020/12/06 06:21:15;;;;;;;33.85;14.63;;;;;;;-0.18;100.00;98632.27;4477167;78;44113;-74
2020/12/06 06:27:18;;;;;;;26.25;12.95;;;;;;;-0.19;100.00;98647.32;4514384;78;43434;-74
2020/12/06 06:33:22;;;;;;;25.15;12.43;;;;;;;-0.13;100.00;98649.77;4511563;78;43316;-73
2020/12/06 06:39:26;;;;;;;25.68;12.37;;;;;;;0.10;100.00;98643.72;4511797;78;42886;-73
2020/12/06 06:45:31;;;;;;;25.62;13.08;;;;;;;0.12;100.00;98659.74;4514013;79;42862;-73
2020/12/06 06:51:33;;;;;;;25.68;12.20;;;;;;;0.16;100.00;98672.61;4511532;78;42867;-74
2020/12/06 06:57:35;;;;;;;28.38;12.93;;;;;;;-0.02;100.00;98661.28;4512201;78;43419;-76
2020/12/06 07:03:48;;;;;;;33.00;15.13;;;;;;;-0.13;100.00;98662.98;4492748;78;44074;-75
2020/12/06 07:09:51;;;;;;;30.90;15.10;;;;;;;0.08;100.00;98665.03;4478720;78;44153;-73
2020/12/06 07:15:53;;;;;;;30.97;15.40;;;;;;;0.06;100.00;98668.87;4462428;78;44097;-73
2020/12/06 07:21:57;;;;;;;34.75;15.98;;;;;;;0.13;100.00;98674.61;4477803;78;44074;-73
2020/12/06 07:28:00;;;;;;;30.70;14.43;;;;;;;0.47;100.00;98683.20;4506033;78;44117;-72
2020/12/06 07:34:04;;;;;;;33.60;15.60;;;;;;;0.65;100.00;98677.63;4512669;78;44186;-74
2020/12/06 07:40:09;;;;;;;31.30;16.37;;;;;;;0.81;100.00;98670.55;4494000;78;44100;-73
2020/12/06 07:46:17;;;;;;;28.70;14.53;;;;;;;0.95;100.00;98668.97;4494722;78;28536;-72
2020/12/06 07:52:25;;;;;;;31.37;14.58;;;;;;;1.30;100.00;98668.02;4508286;78;28586;-75
2020/12/06 07:58:28;;;;;;;28.95;14.95;;;;;;;1.76;100.00;98678.16;4506281;78;28590;-75
2020/12/06 08:04:34;;;;;;;28.32;13.53;;;;;;;1.99;100.00;98663.48;4492430;78;28577;-74
2020/12/06 08:10:38;;;;;;;28.98;15.85;;;;;;;2.26;100.00;98651.84;4486250;78;28566;-76
2020/12/06 08:16:57;;;;;;;28.90;13.72;;;;;;;2.73;100.00;98645.69;4514525;78;28690;-78
2020/12/06 08:23:00;;;;;;;26.35;12.90;;;;;;;3.12;100.00;98652.87;4485698;78;28602;-76
2020/12/06 08:29:02;;;;;;;26.93;13.68;;;;;;;3.54;100.00;98657.45;4502179;78;28642;-76
2020/12/06 08:35:05;;;;;;;24.72;12.10;;;;;;;4.02;100.00;98665.51;4391656;80;28573;-78
2020/12/06 08:41:12;;;;;;;23.57;12.18;;;;;;;4.45;100.00;98663.62;4354367;80;28572;-77
2020/12/06 08:47:14;;;;;;;22.73;12.15;;;;;;;4.84;100.00;98662.56;4362122;81;28599;-77
2020/12/06 08:53:16;;;;;;;17.48;9.78;;;;;;;5.18;100.00;98653.27;4359917;80;28554;-76
2020/12/06 08:59:18;;;;;;;23.90;11.55;;;;;;;5.49;100.00;98646.48;4330086;80;28638;-77
2020/12/06 09:05:20;;;;;;;21.45;11.35;;;;;;;5.76;100.00;98653.91;4346720;80;28561;-77
2020/12/06 09:11:24;;;;;;;18.95;9.90;;;;;;;5.95;100.00;98652.73;4344495;80;28586;-78
2020/12/06 09:17:26;;;;;;;21.15;10.15;;;;;;;6.09;100.00;98646.88;4351644;80;28546;-78
2020/12/06 09:23:28;;;;;;;22.73;11.33;;;;;;;6.30;100.00;98644.43;4348590;80;28543;-77
2020/12/06 09:29:31;;;;;;;21.05;11.35;;;;;;;6.53;100.00;98629.19;4363127;80;28565;-75
2020/12/06 09:35:34;;;;;;;24.12;12.45;;;;;;;6.72;100.00;98621.77;4339470;80;28570;-77
2020/12/06 09:41:38;;;;;;;19.85;10.68;;;;;;;6.91;100.00;98606.64;4371275;80;28544;-79
2020/12/06 09:47:51;;;;;;;18.67;10.10;;;;;;;7.15;100.00;98594.82;4329757;80;28578;-79
2020/12/06 09:53:57;;;;;;;18.35;10.20;;;;;;;7.36;100.00;98582.38;4383845;80;28662;-77
2020/12/06 09:59:59;;;;;;;23.07;12.13;;;;;;;7.65;100.00;98564.47;4366555;80;28574;-81
2020/12/06 10:06:02;;;;;;;18.05;9.48;;;;;;;7.83;100.00;98550.79;4389453;80;28551;-74
2020/12/06 10:12:04;;;;;;;14.87;7.92;;;;;;;8.02;100.00;98541.69;4290736;82;28599;-74
2020/12/06 10:18:06;;;;;;;12.73;7.40;;;;;;;8.27;100.00;98542.05;4317772;81;28604;-73
2020/12/06 10:24:08;;;;;;;14.00;8.48;;;;;;;8.59;100.00;98524.42;4398047;80;28546;-73
2020/12/06 10:30:11;;;;;;;15.13;7.65;;;;;;;8.85;100.00;98514.30;4398706;79;28623;-73
2020/12/06 10:36:13;;;;;;;12.80;7.65;;;;;;;9.09;100.00;98514.28;4393926;80;28594;-72
2020/12/06 10:42:16;;;;;;;16.62;8.20;;;;;;;9.19;100.00;98505.67;4372686;80;28618;-72
2020/12/06 10:48:18;;;;;;;10.43;5.80;;;;;;;9.35;100.00;98496.88;4386697;80;28551;-73
2020/12/06 10:54:20;;;;;;;9.65;5.12;;;;;;;9.52;100.00;98487.27;4395287;80;28541;-72
2020/12/06 11:00:22;;;;;;;8.30;4.70;;;;;;;9.67;100.00;98488.94;4403009;80;28659;-74
2020/12/06 11:06:25;;;;;;;7.45;4.47;;;;;;;9.83;100.00;98486.52;4401459;79;28549;-76
2020/12/06 11:12:27;;;;;;;9.48;4.60;;;;;;;9.96;100.00;98484.09;4423429;80;28561;-80
2020/12/06 11:18:29;;;;;;;6.20;4.30;;;;;;;10.04;100.00;98471.62;4419290;80;28568;-83
2020/12/06 11:24:32;;;;;;;7.25;4.37;;;;;;;10.08;100.00;98466.03;4377989;80;28611;-81
2020/12/06 11:30:34;;;;;;;5.62;3.90;;;;;;;10.29;100.00;98468.55;4380171;80;28575;-79
2020/12/06 11:36:37;;;;;;;8.15;4.50;;;;;;;10.41;100.00;98471.21;4389100;79;28548;-81
2020/12/06 11:42:39;;;;;;;5.60;3.10;;;;;;;10.45;100.00;98454.05;4414949;78;28645;-76
2020/12/06 11:48:41;;;;;;;5.47;3.20;;;;;;;10.51;100.00;98447.70;4418188;80;28598;-76
2020/12/06 11:54:44;;;;;;;7.65;4.58;;;;;;;10.62;100.00;98439.27;4310112;81;28590;-77
2020/12/06 12:00:46;;;;;;;6.80;4.08;;;;;;;10.78;100.00;98442.17;4370946;81;28578;-76
2020/12/06 12:06:48;;;;;;;8.18;4.47;;;;;;;10.79;100.00;98439.77;4366343;81;28619;-77
2020/12/06 12:12:50;;;;;;;6.90;3.90;;;;;;;10.79;100.00;98439.77;4407770;79;28638;-77
2020/12/06 12:18:52;;;;;;;6.00;3.62;;;;;;;10.82;100.00;98439.27;4394442;81;28568;-76
2020/12/06 12:24:54;;;;;;;7.12;3.95;;;;;;;10.82;100.00;98433.37;4315603;82;28580;-76
2020/12/06 12:30:58;;;;;;;6.20;3.83;;;;;;;10.86;100.00;98432.34;4411037;80;28586;-76
2020/12/06 12:37:00;;;;;;;5.30;3.45;;;;;;;10.90;100.00;98415.98;4398538;80;28589;-76
2020/12/06 12:43:02;;;;;;;7.50;2.92;;;;;;;10.84;100.00;98417.00;4318110;81;28577;-75
2020/12/06 12:49:05;;;;;;;6.03;3.40;;;;;;;10.88;100.00;98409.53;4329875;82;28592;-76
2020/12/06 12:55:07;;;;;;;5.83;2.92;;;;;;;10.89;100.00;98394.19;4333891;82;28564;-76
2020/12/06 13:01:09;;;;;;;4.45;2.75;;;;;;;10.84;100.00;98417.00;4347017;81;28568;-75
2020/12/06 13:07:11;;;;;;;5.42;3.12;;;;;;;10.82;100.00;98405.13;4359446;80;28561;-76
2020/12/06 13:13:13;;;;;;;5.62;3.22;;;;;;;10.73;100.00;98395.86;4329731;81;28612;-84
2020/12/06 13:19:15;;;;;;;5.22;2.90;;;;;;;10.71;100.00;98388.58;4347413;80;28559;-81
2020/12/06 13:25:18;;;;;;;5.65;2.95;;;;;;;10.50;100.00;98386.95;4367999;81;28552;-81
2020/12/06 13:31:21;;;;;;;6.35;3.37;;;;;;;10.38;100.00;98388.89;4363811;81;28926;-73
2020/12/06 13:37:23;;;;;;;6.08;3.05;;;;;;;10.24;100.00;98386.52;4367913;81;28619;-74
2020/12/06 13:43:25;;;;;;;6.83;3.17;;;;;;;10.24;100.00;98383.83;4359347;81;28543;-75
2020/12/06 13:49:27;;;;;;;5.92;2.85;;;;;;;10.22;100.00;98394.56;4339502;80;28573;-72
2020/12/06 13:55:30;;;;;;;5.33;3.22;;;;;;;10.10;100.00;98386.05;4341296;81;28614;-72
2020/12/06 14:01:32;;;;;;;5.45;3.65;;;;;;;9.95;100.00;98399.21;4357670;80;28548;-72
2020/12/06 14:07:35;;;;;;;5.40;2.72;;;;;;;9.88;100.00;98407.43;4366068;80;28595;-74
2020/12/06 14:13:37;;;;;;;5.58;3.00;;;;;;;9.73;100.00;98395.34;4355546;81;28577;-73
2020/12/06 14:19:40;;;;;;;5.55;2.95;;;;;;;9.66;100.00;98403.27;4322902;81;28630;-74
2020/12/06 14:25:43;;;;;;;5.37;3.30;;;;;;;9.66;100.00;98401.41;4340269;80;28626;-77
2020/12/06 14:31:46;;;;;;;5.87;3.60;;;;;;;9.67;100.00;98404.89;4325294;81;28604;-75
2020/12/06 14:37:48;;;;;;;7.00;3.67;;;;;;;9.58;100.00;98405.82;4345117;80;28601;-75
2020/12/06 14:43:50;;;;;;;5.47;3.50;;;;;;;9.46;100.00;98403.17;4351560;81;28546;-75
2020/12/06 14:49:53;;;;;;;8.53;3.50;;;;;;;9.28;100.00;98402.84;4367709;81;28558;-74
2020/12/06 14:55:56;;;;;;;7.42;4.03;;;;;;;9.20;100.00;98391.97;4366184;81;28551;-74
2020/12/06 15:01:58;;;;;;;7.20;4.10;;;;;;;9.05;100.00;98395.15;4380012;80;28568;-75
2020/12/06 15:08:00;;;;;;;6.67;4.12;;;;;;;9.01;100.00;98411.44;4392162;80;28539;-75
2020/12/06 15:14:03;;;;;;;9.40;4.85;;;;;;;8.88;100.00;98401.77;4397566;80;28596;-76
2020/12/06 15:20:05;;;;;;;7.05;3.72;;;;;;;8.74;100.00;98403.88;4398777;79;28571;-81
2020/12/06 15:26:07;;;;;;;11.90;5.67;;;;;;;8.88;100.00;98405.80;4312755;81;28592;-76
2020/12/06 15:32:09;;;;;;;14.85;7.20;;;;;;;8.68;100.00;98411.51;4390682;80;28657;-77
2020/12/06 15:38:11;;;;;;;11.83;6.17;;;;;;;8.12;100.00;98416.63;4299090;81;28618;-76
2020/12/06 15:44:14;;;;;;;13.15;7.42;;;;;;;7.74;100.00;98419.17;4382727;80;28566;-77
2020/12/06 15:50:16;;;;;;;12.73;7.60;;;;;;;7.51;100.00;98421.52;4364939;80;28589;-75
2020/12/06 15:56:21;;;;;;;14.80;8.10;;;;;;;7.27;100.00;98417.91;4322464;81;28621;-86
2020/12/06 16:02:23;;;;;;;13.90;7.75;;;;;;;6.97;100.00;98414.16;4299531;81;28578;-77
2020/12/06 16:08:25;;;;;;;15.63;8.60;;;;;;;6.71;100.00;98399.22;4367918;80;28538;-79
2020/12/06 16:14:28;;;;;;;17.07;8.88;;;;;;;6.51;100.00;98394.09;4369399;80;28602;-77
2020/12/06 16:20:32;;;;;;;18.82;10.13;;;;;;;6.32;100.00;98411.41;4316821;81;28607;-78
2020/12/06 16:26:36;;;;;;;17.82;9.68;;;;;;;6.09;100.00;98409.33;4363426;81;28582;-78
2020/12/06 16:32:40;;;;;;;17.23;9.85;;;;;;;5.89;100.00;98410.26;4361658;80;28571;-77
2020/12/06 16:38:42;;;;;;;18.42;10.35;;;;;;;5.78;100.00;98410.45;4364700;80;28649;-78
2020/12/06 16:44:46;;;;;;;18.42;9.75;;;;;;;5.64;100.00;98402.21;4362409;81;28646;-78
2020/12/06 16:50:48;;;;;;;20.52;11.45;;;;;;;5.45;100.00;98390.11;4352916;80;28589;-78
2020/12/06 16:56:50;;;;;;;20.00;11.10;;;;;;;5.32;100.00;98394.19;4370479;81;28606;-78
2020/12/06 17:02:53;;;;;;;18.00;10.20;;;;;;;5.01;100.00;98391.25;4380508;80;28593;-78
2020/12/06 17:08:57;;;;;;;19.50;10.95;;;;;;;5.00;100.00;98402.41;4318855;81;28559;-78
2020/12/06 17:14:59;;;;;;;18.95;9.73;;;;;;;4.68;100.00;98397.47;4378901;80;28618;-79
2020/12/06 17:21:01;;;;;;;17.05;10.28;;;;;;;4.52;100.00;98392.08;4305860;81;28602;-78
2020/12/06 17:27:03;;;;;;;17.10;10.18;;;;;;;4.56;100.00;98404.77;4401602;80;28541;-78
2020/12/06 17:33:05;;;;;;;16.95;9.18;;;;;;;4.35;100.00;98395.19;4405635;80;28566;-77
2020/12/06 17:39:07;;;;;;;16.97;9.90;;;;;;;4.33;100.00;98395.39;4395703;80;28591;-77
2020/12/06 17:45:09;;;;;;;18.25;10.30;;;;;;;4.14;100.00;98397.55;4396911;80;28625;-77
2020/12/06 17:51:15;;;;;;;20.72;10.25;;;;;;;4.12;100.00;98394.27;4391315;79;28639;-76
2020/12/06 17:57:17;;;;;;;16.57;9.05;;;;;;;3.99;100.00;98404.39;4360170;81;28576;-77
2020/12/06 18:03:19;;;;;;;19.55;10.80;;;;;;;3.96;100.00;98406.97;4395482;80;28585;-77
2020/12/06 18:09:21;;;;;;;19.05;10.90;;;;;;;3.92;100.00;98400.41;4275843;81;28583;-77
2020/12/06 18:15:23;;;;;;;18.77;10.85;;;;;;;3.81;100.00;98400.52;4337064;81;28614;-79
2020/12/06 18:21:26;;;;;;;17.95;10.45;;;;;;;3.79;100.00;98409.70;4388961;80;28554;-79
2020/12/06 18:27:28;;;;;;;19.42;10.48;;;;;;;3.82;100.00;98399.48;4396097;80;28539;-79
2020/12/06 18:33:30;;;;;;;19.50;9.90;;;;;;;3.79;100.00;98401.20;4325837;81;28551;-78
2020/12/06 18:39:32;;;;;;;18.90;10.23;;;;;;;3.74;100.00;98409.78;4392862;80;28617;-78
2020/12/06 18:45:35;;;;;;;22.15;11.50;;;;;;;3.63;100.00;98417.86;4314554;81;28575;-76
2020/12/06 18:51:40;;;;;;;20.00;10.85;;;;;;;3.48;100.00;98411.38;4388819;80;28547;-75
2020/12/06 18:57:42;;;;;;;21.17;10.60;;;;;;;3.41;100.00;98410.53;4327544;81;28588;-77
2020/12/06 19:03:45;;;;;;;20.55;10.35;;;;;;;3.39;100.00;98413.10;4397224;80;28633;-80
2020/12/06 19:09:47;;;;;;;19.25;9.90;;;;;;;3.25;100.00;98410.91;4398495;80;28629;-75
2020/12/06 19:15:49;;;;;;;17.70;9.73;;;;;;;3.14;100.00;98418.42;4395222;80;28593;-76
2020/12/06 19:21:51;;;;;;;19.10;10.48;;;;;;;2.97;100.00;98423.25;4389892;80;28547;-75
2020/12/06 19:27:53;;;;;;;18.50;10.40;;;;;;;2.86;100.00;98422.45;4399567;79;28553;-74
2020/12/06 19:33:58;;;;;;;18.57;9.48;;;;;;;2.75;100.00;98419.34;4396507;79;28579;-73
2020/12/06 19:40:00;;;;;;;19.00;9.98;;;;;;;2.80;100.00;98409.45;4397280;80;28614;-74
2020/12/06 19:46:02;;;;;;;19.55;10.40;;;;;;;2.71;100.00;98415.44;4396313;81;28569;-75
2020/12/06 19:52:04;;;;;;;20.37;10.38;;;;;;;2.61;100.00;98418.95;4396040;80;28553;-75
2020/12/06 19:58:07;;;;;;;16.62;9.15;;;;;;;2.59;100.00;98415.67;4395486;80;28602;-75
2020/12/06 20:04:09;;;;;;;19.62;11.33;;;;;;;2.64;100.00;98430.50;4372121;80;28550;-74
2020/12/06 20:10:11;;;;;;;18.15;10.20;;;;;;;2.48;100.00;98432.45;4381345;80;28547;-74
2020/12/06 20:16:13;;;;;;;20.48;10.60;;;;;;;2.47;100.00;98430.81;4300365;82;28556;-74
2020/12/06 20:22:16;;;;;;;19.65;11.08;;;;;;;2.50;100.00;98425.64;4238935;82;28576;-75
2020/12/06 20:28:27;;;;;;;14.68;8.73;;;;;;;2.48;100.00;98428.97;4328405;80;28554;-74
2020/12/06 20:34:24;;;;;;;18.57;9.93;;;;;;;2.46;100.00;98424.37;4348273;80;28627;-75
2020/12/06 20:40:26;;;;;;;17.35;8.53;;;;;;;2.40;100.00;98418.00;4360258;80;28618;-74
2020/12/06 20:46:29;;;;;;;15.63;8.45;;;;;;;2.35;100.00;98432.36;4326006;80;28554;-74
2020/12/06 20:52:32;;;;;;;17.48;9.83;;;;;;;2.35;100.00;98439.80;4248958;82;28575;-74
2020/12/06 20:58:35;;;;;;;16.87;8.78;;;;;;;2.28;100.00;98434.94;4263380;82;28622;-74
2020/12/06 21:04:38;;;;;;;18.37;8.90;;;;;;;2.21;100.00;98435.41;4294591;81;28555;-75
2020/12/06 21:10:41;;;;;;;16.62;9.10;;;;;;;2.19;100.00;98437.45;4326913;81;28538;-75
2020/12/06 21:16:43;;;;;;;15.50;8.78;;;;;;;2.19;100.00;98434.27;4327358;81;28578;-75
2020/12/06 21:22:45;;;;;;;17.30;8.88;;;;;;;2.07;100.00;98449.06;4323469;81;28591;-75
2020/12/06 21:28:47;;;;;;;17.15;9.45;;;;;;;2.02;100.00;98441.67;4321590;82;28611;-75
2020/12/06 21:34:49;;;;;;;17.95;9.30;;;;;;;1.97;100.00;98443.26;4327718;81;28632;-75
2020/12/06 21:40:51;;;;;;;17.82;9.80;;;;;;;1.87;100.00;98439.58;4314508;82;28561;-76
2020/12/06 21:46:53;;;;;;;17.35;9.75;;;;;;;1.87;100.00;98438.25;4293981;82;28577;-73
2020/12/06 21:52:56;;;;;;;19.73;9.88;;;;;;;1.82;100.00;98445.45;4325948;81;28611;-71
2020/12/06 21:58:58;;;;;;;16.07;8.33;;;;;;;1.73;100.00;98451.39;4307069;81;28578;-71
2020/12/06 22:05:00;;;;;;;18.67;9.35;;;;;;;1.67;100.00;98439.71;4341986;80;43981;-70
2020/12/06 22:11:02;;;;;;;19.25;9.48;;;;;;;1.66;100.00;98435.91;4349725;80;28638;-71
2020/12/06 22:17:09;;;;;;;16.82;9.00;;;;;;;1.53;100.00;98437.94;4349563;80;28621;-70
2020/12/06 22:23:12;;;;;;;16.73;9.40;;;;;;;1.46;100.00;98433.06;4364584;80;28609;-70
2020/12/06 22:29:14;;;;;;;16.32;9.70;;;;;;;1.40;100.00;98422.70;4334764;80;30540;-71
2020/12/06 22:35:16;;;;;;;17.98;9.65;;;;;;;1.34;100.00;98411.03;4359257;80;43909;-72
2020/12/06 22:41:23;;;;;;;18.32;9.78;;;;;;;1.30;100.00;98413.75;4356015;81;29082;-73
2020/12/06 22:47:25;;;;;;;17.30;9.03;;;;;;;1.31;100.00;98415.39;4326347;81;28616;-72
2020/12/06 22:53:28;;;;;;;17.95;9.30;;;;;;;1.34;100.00;98420.30;4360117;80;28542;-72
2020/12/06 22:59:30;;;;;;;15.28;8.65;;;;;;;1.30;100.00;98419.05;4356113;81;28551;-72
2020/12/06 23:05:32;;;;;;;16.97;9.45;;;;;;;1.19;100.00;98422.98;4349825;81;28598;-72
2020/12/06 23:11:37;;;;;;;18.92;9.98;;;;;;;1.08;100.00;98404.41;4367128;80;28651;-72
2020/12/06 23:17:39;;;;;;;17.23;9.28;;;;;;;1.07;100.00;98410.70;4371135;80;43903;-72
2020/12/06 23:23:43;;;;;;;11.43;7.15;;;;;;;1.01;100.00;98404.84;4379840;80;28562;-72
2020/12/06 23:29:45;;;;;;;19.32;10.48;;;;;;;1.07;100.00;98400.64;4377752;81;28611;-72
2020/12/06 23:35:48;;;;;;;19.12;9.55;;;;;;;1.02;100.00;98406.97;4378464;80;43948;-72
2020/12/06 23:41:50;;;;;;;20.05;10.43;;;;;;;1.05;100.00;98398.69;4376677;81;44517;-73
2020/12/06 23:47:53;;;;;;;20.92;9.85;;;;;;;1.07;100.00;98404.09;4365923;80;44447;-72
2020/12/06 23:53:55;;;;;;;16.65;8.43;;;;;;;1.06;100.00;98401.65;4379723;80;28551;-73
2020/12/06 23:59:57;;;;;;;15.53;8.50;;;;;;;0.99;100.00;98396.27;4334476;81;28554;-73
